createdAt,value
2022-09-04T00:00:33.240Z,20.71
2022-09-04T00:03:15.592Z,20.74
2022-09-04T00:05:42.207Z,20.75
2022-09-04T00:08:20.972Z,20.72
2022-09-04T00:10:55.872Z,20.61
2022-09-04T00:13:24.011Z,20.60
2022-09-04T00:16:05.660Z,20.60
2022-09-04T00:18:38.137Z,20.59
2022-09-04T00:21:10.861Z,20.59
2022-09-04T00:23:41.827Z,20.58
2022-09-04T00:26:20.866Z,20.56
2022-09-04T00:28:49.596Z,20.57
2022-09-04T00:31:29.076Z,20.57
2022-09-04T00:33:58.658Z,20.51
2022-09-04T00:36:27.701Z,20.50
2022-09-04T00:38:57.647Z,20.47
2022-09-04T00:41:28.343Z,20.47
2022-09-04T00:44:28.353Z,20.47
2022-09-04T00:47:13.660Z,20.45
2022-09-04T00:49:46.921Z,20.39
2022-09-04T00:52:36.405Z,20.36
2022-09-04T00:55:03.577Z,20.35
2022-09-04T00:57:48.932Z,20.36
2022-09-04T01:00:17.377Z,20.33
2022-09-04T01:02:43.899Z,20.31
2022-09-04T01:05:20.390Z,20.30
2022-09-04T01:08:00.505Z,20.30
2022-09-04T01:10:39.008Z,20.26
2022-09-04T01:13:16.789Z,20.21
2022-09-04T01:15:55.557Z,20.21
2022-09-04T01:18:29.708Z,20.25
2022-09-04T01:21:10.852Z,20.28
2022-09-04T01:23:57.651Z,20.20
2022-09-04T01:26:33.453Z,20.18
2022-09-04T01:29:15.243Z,20.18
2022-09-04T01:31:47.913Z,20.12
2022-09-04T01:34:14.408Z,20.12
2022-09-04T01:36:46.880Z,20.13
2022-09-04T01:39:13.629Z,20.11
2022-09-04T01:41:47.221Z,20.12
2022-09-04T01:44:13.979Z,20.10
2022-09-04T01:46:40.499Z,20.08
2022-09-04T01:49:25.788Z,20.05
2022-09-04T01:52:10.579Z,20.04
2022-09-04T01:54:50.773Z,20.01
2022-09-04T01:57:20.425Z,20.02
2022-09-04T01:59:53.582Z,20.02
2022-09-04T02:02:23.287Z,20.02
2022-09-04T02:04:52.850Z,20.02
2022-09-04T02:07:19.330Z,20.02
2022-09-04T02:09:56.661Z,20.02
2022-09-04T02:12:23.121Z,20.02
2022-09-04T02:15:09.926Z,20.01
2022-09-04T02:17:54.981Z,20.00
2022-09-04T02:20:24.242Z,19.99
2022-09-04T02:22:50.722Z,19.96
2022-09-04T02:25:17.200Z,19.95
2022-09-04T02:27:43.633Z,19.93
2022-09-04T02:30:12.113Z,19.91
2022-09-04T02:32:44.610Z,19.88
2022-09-04T02:35:18.118Z,19.89
2022-09-04T02:38:13.911Z,19.89
2022-09-04T02:40:50.742Z,19.86
2022-09-04T02:43:23.539Z,19.87
2022-09-04T02:46:00.062Z,19.89
2022-09-04T02:48:46.795Z,19.88
2022-09-04T02:51:13.845Z,19.83
2022-09-04T02:54:12.954Z,19.75
2022-09-04T02:56:58.649Z,19.66
2022-09-04T02:59:44.105Z,19.60
2022-09-04T03:02:33.993Z,19.62
2022-09-04T03:05:08.145Z,19.62
2022-09-04T03:07:48.565Z,19.63
2022-09-04T03:10:15.083Z,19.59
2022-09-04T03:12:47.992Z,19.45
2022-09-04T03:15:14.570Z,19.35
2022-09-04T03:17:53.494Z,19.32
2022-09-04T03:20:25.315Z,19.30
2022-09-04T03:22:55.687Z,19.37
2022-09-04T03:25:33.757Z,19.40
2022-09-04T03:28:00.666Z,19.37
2022-09-04T03:30:28.069Z,19.32
2022-09-04T03:33:05.166Z,19.33
2022-09-04T03:35:37.718Z,19.31
2022-09-04T03:38:28.586Z,19.23
2022-09-04T03:41:03.080Z,19.20
2022-09-04T03:43:47.502Z,19.16
2022-09-04T03:46:20.189Z,19.10
2022-09-04T03:48:55.283Z,19.06
2022-09-04T03:51:25.547Z,19.06
2022-09-04T03:54:12.253Z,18.98
2022-09-04T03:56:54.199Z,18.96
2022-09-04T03:59:20.684Z,18.96
2022-09-04T04:01:53.254Z,19.01
2022-09-04T04:04:38.462Z,18.98
2022-09-04T04:07:07.800Z,18.91
2022-09-04T04:09:43.544Z,18.83
2022-09-04T04:12:27.420Z,18.81
2022-09-04T04:15:03.333Z,18.80
2022-09-04T04:17:46.188Z,18.79
2022-09-04T04:20:12.670Z,18.75
2022-09-04T04:22:39.148Z,18.79
2022-09-04T04:25:12.679Z,18.76
2022-09-04T04:27:59.095Z,18.74
2022-09-04T04:30:30.696Z,18.74
2022-09-04T04:33:20.804Z,18.69
2022-09-04T04:36:05.687Z,18.67
2022-09-04T04:38:41.635Z,18.74
2022-09-04T04:41:08.626Z,18.75
2022-09-04T04:43:53.895Z,18.79
2022-09-04T04:46:20.363Z,18.74
2022-09-04T04:49:05.586Z,18.67
2022-09-04T04:51:41.265Z,18.61
2022-09-04T04:54:13.878Z,18.59
2022-09-04T04:56:51.083Z,18.59
2022-09-04T04:59:23.757Z,18.54
2022-09-04T05:01:56.336Z,18.59
2022-09-04T05:04:36.076Z,18.62
2022-09-04T05:07:21.730Z,18.59
2022-09-04T05:10:06.995Z,18.58
2022-09-04T05:12:49.968Z,18.60
2022-09-04T05:15:28.721Z,18.66
2022-09-04T05:18:01.818Z,18.78
2022-09-04T05:20:43.565Z,18.85
2022-09-04T05:23:28.736Z,18.81
2022-09-04T05:26:08.053Z,18.78
2022-09-04T05:28:34.536Z,18.84
2022-09-04T05:31:24.424Z,18.91
2022-09-04T05:33:59.265Z,19.02
2022-09-04T05:36:28.825Z,19.11
2022-09-04T05:39:06.352Z,19.15
2022-09-04T05:41:33.044Z,19.17
2022-09-04T05:44:02.575Z,19.14
2022-09-04T05:46:44.156Z,19.10
2022-09-04T05:49:13.530Z,19.11
2022-09-04T05:51:48.930Z,19.16
2022-09-04T05:54:18.443Z,19.14
2022-09-04T05:56:48.132Z,19.00
2022-09-04T05:59:21.691Z,18.98
2022-09-04T06:01:57.602Z,18.98
2022-09-04T06:04:36.414Z,19.00
2022-09-04T06:07:09.127Z,18.96
2022-09-04T06:09:51.084Z,18.94
2022-09-04T06:12:35.465Z,18.94
2022-09-04T06:15:11.041Z,19.00
2022-09-04T06:17:40.285Z,19.18
2022-09-04T06:20:25.640Z,19.39
2022-09-04T06:23:03.107Z,19.50
2022-09-04T06:25:37.730Z,19.54
2022-09-04T06:28:22.874Z,19.45
2022-09-04T06:30:52.230Z,19.24
2022-09-04T06:33:18.904Z,19.13
2022-09-04T06:35:48.506Z,19.09
2022-09-04T06:38:44.187Z,19.44
2022-09-04T06:41:20.575Z,19.58
2022-09-04T06:43:50.253Z,19.70
2022-09-04T06:46:24.038Z,19.80
2022-09-04T06:49:13.781Z,19.71
2022-09-04T06:51:40.304Z,19.75
2022-09-04T06:54:24.287Z,20.10
2022-09-04T06:57:25.330Z,20.45
2022-09-04T06:59:51.923Z,20.70
2022-09-04T07:02:22.026Z,20.62
2022-09-04T07:04:48.573Z,20.46
2022-09-04T07:07:18.161Z,20.58
2022-09-04T07:09:49.554Z,20.98
2022-09-04T07:12:36.391Z,21.34
2022-09-04T07:15:12.420Z,21.47
2022-09-04T07:17:56.483Z,21.47
2022-09-04T07:20:25.839Z,21.33
2022-09-04T07:22:52.321Z,21.20
2022-09-04T07:25:33.067Z,21.36
2022-09-04T07:28:25.968Z,21.85
2022-09-04T07:30:57.131Z,21.99
2022-09-04T07:33:35.748Z,21.98
2022-09-04T07:36:14.400Z,21.84
2022-09-04T07:38:50.667Z,21.83
2022-09-04T07:41:37.757Z,21.88
2022-09-04T07:44:13.853Z,22.00
2022-09-04T07:47:00.135Z,22.04
2022-09-04T07:49:26.615Z,21.93
2022-09-04T07:51:56.361Z,21.78
2022-09-04T07:54:41.913Z,21.65
2022-09-04T07:57:14.599Z,21.55
2022-09-04T07:59:49.580Z,21.56
2022-09-04T08:02:34.834Z,21.59
2022-09-04T08:05:08.752Z,21.61
2022-09-04T08:07:38.283Z,21.61
2022-09-04T08:10:14.337Z,21.58
2022-09-04T08:12:56.312Z,21.58
2022-09-04T08:15:30.197Z,21.63
2022-09-04T08:18:11.821Z,21.69
2022-09-04T08:20:49.279Z,21.78
2022-09-04T08:23:24.539Z,21.86
2022-09-04T08:25:54.578Z,21.90
2022-09-04T08:28:33.406Z,21.93
2022-09-04T08:31:08.082Z,21.95
2022-09-04T08:33:51.186Z,22.01
2022-09-04T08:36:25.373Z,22.09
2022-09-04T08:39:10.913Z,22.20
2022-09-04T08:41:49.727Z,22.24
2022-09-04T08:44:37.904Z,22.27
2022-09-04T08:47:17.752Z,22.38
2022-09-04T08:49:52.065Z,22.56
2022-09-04T08:52:21.506Z,22.82
2022-09-04T08:55:00.731Z,23.49
2022-09-04T08:57:50.078Z,27.38
2022-09-04T09:00:20.500Z,32.25
2022-09-04T09:03:05.905Z,35.81
2022-09-04T09:05:53.526Z,38.54
2022-09-04T09:08:38.910Z,40.60
2022-09-04T09:11:24.203Z,41.82
2022-09-04T09:13:53.752Z,43.02
2022-09-04T09:16:21.541Z,44.13
2022-09-04T09:19:06.661Z,44.73
2022-09-04T09:22:05.751Z,44.77
2022-09-04T09:24:51.478Z,44.50
2022-09-04T09:27:33.225Z,45.67
2022-09-04T09:30:02.834Z,46.85
2022-09-04T09:32:29.309Z,47.61
2022-09-04T09:35:08.688Z,48.06
2022-09-04T09:37:45.056Z,48.50
2022-09-04T09:40:11.513Z,48.85
2022-09-04T09:43:16.666Z,49.33
2022-09-04T09:46:01.726Z,48.52
2022-09-04T09:48:30.962Z,49.17
2022-09-04T09:51:15.953Z,49.37
2022-09-04T09:54:01.417Z,49.87
2022-09-04T09:56:30.758Z,50.01
2022-09-04T09:59:06.482Z,50.62
2022-09-04T10:02:07.850Z,51.08
2022-09-04T10:04:53.199Z,50.64
2022-09-04T10:07:29.797Z,51.01
2022-09-04T10:10:24.218Z,51.66
2022-09-04T10:12:50.752Z,51.38
2022-09-04T10:15:30.330Z,48.47
2022-09-04T10:18:06.041Z,48.40
2022-09-04T10:20:40.760Z,49.94
2022-09-04T10:23:30.860Z,51.07
2022-09-04T10:26:15.870Z,51.86
2022-09-04T10:29:04.160Z,52.00
2022-09-04T10:31:45.912Z,52.16
2022-09-04T10:34:20.265Z,51.67
2022-09-04T10:37:13.220Z,51.47
2022-09-04T10:40:17.628Z,52.69
2022-09-04T10:42:57.709Z,52.87
2022-09-04T10:45:24.395Z,52.99
2022-09-04T10:48:06.318Z,53.23
2022-09-04T10:50:54.927Z,53.00
2022-09-04T10:53:31.505Z,53.33
2022-09-04T10:56:22.067Z,52.61
2022-09-04T10:58:48.607Z,52.64
2022-09-04T11:01:35.650Z,52.89
2022-09-04T11:04:19.738Z,53.92
2022-09-04T11:06:47.078Z,54.92
2022-09-04T11:09:13.751Z,53.73
2022-09-04T11:11:43.443Z,53.28
2022-09-04T11:14:23.578Z,53.21
2022-09-04T11:16:59.971Z,52.92
2022-09-04T11:19:45.351Z,53.47
2022-09-04T11:22:34.457Z,53.28
2022-09-04T11:25:19.791Z,53.17
2022-09-04T11:27:59.273Z,53.17
2022-09-04T11:30:36.421Z,52.25
2022-09-04T11:33:04.211Z,52.26
2022-09-04T11:35:49.777Z,52.09
2022-09-04T11:38:22.590Z,49.85
2022-09-04T11:41:07.970Z,46.90
2022-09-04T11:43:36.802Z,48.39
2022-09-04T11:46:17.959Z,48.89
2022-09-04T11:48:56.371Z,46.61
2022-09-04T11:51:26.053Z,45.54
2022-09-04T11:54:05.038Z,45.50
2022-09-04T11:56:50.557Z,45.89
2022-09-04T11:59:17.086Z,45.05
2022-09-04T12:01:52.602Z,42.69
2022-09-04T12:04:34.402Z,40.79
2022-09-04T12:07:12.412Z,41.96
2022-09-04T12:09:59.190Z,44.96
2022-09-04T12:12:45.393Z,47.06
2022-09-04T12:15:30.599Z,47.83
2022-09-04T12:18:04.097Z,48.89
2022-09-04T12:20:41.143Z,48.06
2022-09-04T12:23:26.574Z,43.49
2022-09-04T12:26:01.354Z,40.21
2022-09-04T12:28:27.803Z,38.81
2022-09-04T12:30:54.298Z,37.69
2022-09-04T12:33:26.802Z,36.57
2022-09-04T12:35:56.240Z,35.79
2022-09-04T12:38:35.988Z,35.22
2022-09-04T12:41:05.556Z,34.32
2022-09-04T12:43:45.305Z,34.08
2022-09-04T12:46:21.643Z,33.78
2022-09-04T12:49:08.391Z,33.71
2022-09-04T12:52:01.186Z,33.87
2022-09-04T12:54:27.774Z,33.42
2022-09-04T12:57:17.391Z,33.24
2022-09-04T12:59:46.938Z,33.18
2022-09-04T13:02:24.215Z,32.54
2022-09-04T13:04:57.904Z,32.19
2022-09-04T13:07:33.597Z,32.07
2022-09-04T13:10:09.008Z,31.82
2022-09-04T13:12:41.739Z,31.54
2022-09-04T13:15:11.177Z,31.46
2022-09-04T13:17:58.244Z,31.25
2022-09-04T13:20:39.042Z,31.36
2022-09-04T13:23:05.526Z,31.35
2022-09-04T13:25:52.466Z,31.31
2022-09-04T13:28:28.300Z,31.34
2022-09-04T13:31:00.408Z,31.59
2022-09-04T13:33:39.707Z,31.31
2022-09-04T13:36:16.488Z,31.24
2022-09-04T13:38:42.982Z,31.21
2022-09-04T13:41:09.528Z,31.19
2022-09-04T13:43:43.983Z,31.17
2022-09-04T13:46:14.609Z,31.27
2022-09-04T13:49:14.846Z,31.45
2022-09-04T13:52:03.165Z,31.71
2022-09-04T13:54:38.909Z,31.70
2022-09-04T13:57:13.787Z,31.66
2022-09-04T13:59:41.974Z,31.41
2022-09-04T14:02:10.225Z,31.28
2022-09-04T14:04:48.097Z,31.28
2022-09-04T14:07:21.101Z,31.20
2022-09-04T14:09:49.513Z,31.22
2022-09-04T14:12:35.190Z,31.23
2022-09-04T14:15:08.019Z,31.13
2022-09-04T14:17:55.217Z,31.02
2022-09-04T14:20:24.550Z,30.87
2022-09-04T14:23:03.490Z,30.80
2022-09-04T14:25:52.922Z,30.75
2022-09-04T14:28:31.950Z,30.79
2022-09-04T14:31:10.325Z,30.74
2022-09-04T14:33:55.460Z,30.60
2022-09-04T14:36:28.249Z,30.73
2022-09-04T14:39:15.102Z,30.87
2022-09-04T14:41:52.098Z,30.84
2022-09-04T14:44:24.958Z,30.92
2022-09-04T14:46:59.432Z,31.00
2022-09-04T14:49:31.907Z,31.00
2022-09-04T14:52:10.961Z,30.86
2022-09-04T14:54:43.855Z,30.61
2022-09-04T14:57:17.726Z,30.45
2022-09-04T15:00:10.187Z,30.46
2022-09-04T15:02:42.353Z,30.40
2022-09-04T15:05:18.188Z,30.38
2022-09-04T15:07:46.592Z,30.52
2022-09-04T15:10:35.325Z,30.60
2022-09-04T15:13:05.689Z,30.53
2022-09-04T15:15:35.497Z,30.53
2022-09-04T15:18:20.213Z,30.52
2022-09-04T15:21:05.114Z,30.58
2022-09-04T15:23:35.511Z,30.60
2022-09-04T15:26:05.075Z,30.53
2022-09-04T15:28:40.624Z,30.55
2022-09-04T15:31:17.086Z,30.53
2022-09-04T15:33:45.785Z,30.38
2022-09-04T15:36:18.182Z,30.31
2022-09-04T15:38:52.483Z,30.08
2022-09-04T15:41:26.884Z,30.10
2022-09-04T15:44:12.301Z,30.12
2022-09-04T15:46:46.518Z,30.13
2022-09-04T15:49:32.002Z,30.03
2022-09-04T15:52:07.407Z,29.96
2022-09-04T15:54:37.002Z,29.86
2022-09-04T15:57:16.396Z,29.69
2022-09-04T16:00:03.126Z,29.70
2022-09-04T16:02:54.762Z,29.65
2022-09-04T16:05:24.023Z,29.72
2022-09-04T16:08:03.603Z,29.63
2022-09-04T16:10:42.849Z,29.54
2022-09-04T16:13:29.709Z,29.32
2022-09-04T16:16:04.426Z,29.23
2022-09-04T16:18:37.649Z,29.21
2022-09-04T16:21:10.953Z,29.21
2022-09-04T16:23:38.791Z,29.05
2022-09-04T16:26:15.140Z,28.90
2022-09-04T16:28:47.355Z,28.86
2022-09-04T16:31:15.705Z,28.79
2022-09-04T16:33:48.489Z,28.65
2022-09-04T16:36:21.292Z,28.49
2022-09-04T16:38:52.358Z,28.38
2022-09-04T16:41:25.644Z,28.27
2022-09-04T16:44:07.589Z,28.23
2022-09-04T16:46:37.493Z,28.26
2022-09-04T16:49:07.313Z,28.24
2022-09-04T16:51:40.362Z,28.17
2022-09-04T16:54:08.497Z,28.10
2022-09-04T16:56:40.556Z,28.05
2022-09-04T16:59:10.278Z,28.03
2022-09-04T17:01:43.876Z,28.04
2022-09-04T17:04:14.533Z,27.99
2022-09-04T17:06:56.318Z,27.87
2022-09-04T17:09:38.889Z,27.74
2022-09-04T17:12:24.196Z,27.70
2022-09-04T17:14:56.635Z,27.72
2022-09-04T17:17:30.207Z,27.73
2022-09-04T17:20:01.225Z,27.70
2022-09-04T17:29:03.445Z,27.68
2022-09-04T17:29:07.539Z,27.49
2022-09-04T17:29:14.171Z,27.57
2022-09-04T17:31:23.155Z,27.40
2022-09-04T17:40:03.562Z,27.35
2022-09-04T17:40:53.292Z,27.35
2022-09-04T17:41:31.264Z,27.33
2022-09-04T17:42:32.398Z,27.31
2022-09-04T17:45:11.108Z,27.27
2022-09-04T17:47:42.848Z,27.24
2022-09-04T17:50:16.412Z,27.17
2022-09-04T17:53:01.885Z,27.07
2022-09-04T17:55:30.648Z,27.04
2022-09-04T17:58:04.709Z,27.01
2022-09-04T18:00:36.879Z,26.96
2022-09-04T18:03:12.809Z,26.91
2022-09-04T18:05:48.636Z,26.86
2022-09-04T18:08:26.567Z,26.82
2022-09-04T18:11:03.160Z,26.78
2022-09-04T18:13:38.717Z,26.75
2022-09-04T18:16:17.788Z,26.72
2022-09-04T18:18:55.888Z,26.68
2022-09-04T18:21:26.613Z,26.67
2022-09-04T18:24:07.782Z,26.64
2022-09-04T18:26:55.114Z,26.61
2022-09-04T18:29:56.886Z,26.57
2022-09-04T18:37:09.009Z,26.54
2022-09-04T18:37:20.594Z,26.49
2022-09-04T18:38:14.301Z,26.44
2022-09-04T18:45:30.928Z,26.41
2022-09-04T18:50:20.951Z,26.34
2022-09-04T18:50:38.073Z,26.29
2022-09-04T18:50:39.644Z,26.26
2022-09-04T18:52:20.383Z,26.21
2022-09-04T18:54:50.986Z,26.18
2022-09-04T18:57:40.433Z,26.13
2022-09-04T19:00:09.746Z,26.09
2022-09-04T19:02:52.804Z,26.05
2022-09-04T19:05:21.009Z,26.01
2022-09-04T19:07:47.580Z,25.98
2022-09-04T19:10:21.444Z,25.97
2022-09-04T19:12:50.785Z,25.90
2022-09-04T19:15:23.521Z,25.84
2022-09-04T19:18:23.435Z,25.81
2022-09-04T19:20:52.722Z,25.77
2022-09-04T19:23:28.355Z,25.73
2022-09-04T19:26:00.092Z,25.72
2022-09-04T19:28:52.577Z,25.70
2022-09-04T19:31:49.287Z,25.68
2022-09-04T19:34:15.911Z,25.65
2022-09-04T19:36:43.856Z,25.61
2022-09-04T19:46:00.355Z,25.51
2022-09-04T19:46:00.739Z,25.58
2022-09-04T19:46:16.322Z,25.47
2022-09-04T19:48:23.820Z,25.39
2022-09-04T19:53:30.915Z,25.33
2022-09-04T19:54:03.182Z,25.28
2022-09-04T19:56:29.834Z,25.24
2022-09-04T19:59:12.234Z,25.19
2022-09-04T20:01:42.999Z,25.15
2022-09-04T20:04:18.547Z,25.14
2022-09-04T20:06:50.794Z,25.08
2022-09-04T20:09:30.809Z,25.05
2022-09-04T20:12:08.987Z,25.01
2022-09-04T20:14:46.439Z,25.00
2022-09-04T20:17:22.446Z,25.00
2022-09-04T20:19:56.221Z,25.00
2022-09-04T20:22:28.737Z,24.94
2022-09-04T20:25:15.554Z,24.84
2022-09-04T20:27:46.054Z,24.75
2022-09-04T20:30:24.900Z,24.70
2022-09-04T20:32:57.792Z,24.63
2022-09-04T20:35:32.856Z,24.55
2022-09-04T20:38:12.370Z,24.50
2022-09-04T20:40:44.700Z,24.45
2022-09-04T20:43:19.357Z,24.44
2022-09-04T20:50:20.044Z,24.44
2022-09-04T20:52:48.762Z,24.43
2022-09-04T20:52:49.560Z,24.32
2022-09-04T20:54:57.315Z,24.21
2022-09-04T21:01:55.069Z,24.15
2022-09-04T21:03:07.336Z,24.16
2022-09-04T21:03:27.923Z,24.16
2022-09-04T21:05:54.257Z,24.04
2022-09-04T21:08:27.261Z,24.00
2022-09-04T21:10:59.648Z,23.94
2022-09-04T21:13:41.040Z,23.89
2022-09-04T21:16:25.989Z,23.90
2022-09-04T21:19:27.472Z,23.88
2022-09-04T21:22:00.560Z,23.86
2022-09-04T21:24:27.131Z,23.83
2022-09-04T21:26:59.837Z,23.79
2022-09-04T21:29:29.545Z,23.78
2022-09-04T21:32:07.152Z,23.68
2022-09-04T21:34:43.961Z,23.66
2022-09-04T21:37:30.931Z,23.66
2022-09-04T21:39:58.549Z,23.62
2022-09-04T21:42:25.336Z,23.56
2022-09-04T21:45:00.809Z,23.53
2022-09-04T21:47:28.080Z,23.49
2022-09-04T21:50:15.774Z,23.44
2022-09-04T21:53:10.774Z,23.46
2022-09-04T21:59:42.519Z,23.44
2022-09-04T22:02:28.230Z,23.39
2022-09-04T22:02:39.554Z,23.39
2022-09-04T22:04:30.861Z,23.41
2022-09-04T22:09:52.175Z,23.38
2022-09-04T22:13:27.261Z,23.35
2022-09-04T22:13:43.194Z,23.33
2022-09-04T22:15:29.260Z,23.29
2022-09-04T22:18:04.858Z,23.22
2022-09-04T22:20:33.158Z,23.20
2022-09-04T22:23:28.257Z,23.19
2022-09-04T22:26:14.873Z,23.16
2022-09-04T22:28:54.749Z,23.15
2022-09-04T22:31:22.647Z,23.16
2022-09-04T22:34:15.174Z,23.17
2022-09-04T22:37:09.135Z,23.18
2022-09-04T22:39:35.700Z,23.19
2022-09-04T22:42:21.448Z,23.17
2022-09-04T22:45:20.143Z,23.15
2022-09-04T22:47:59.030Z,23.13
2022-09-04T22:50:50.344Z,23.12
2022-09-04T22:53:32.569Z,23.04
2022-09-04T22:56:23.011Z,22.96
2022-09-04T22:58:52.306Z,22.94
2022-09-04T23:01:22.467Z,22.96
2022-09-04T23:04:04.669Z,22.98
2022-09-04T23:11:26.999Z,22.96
2022-09-04T23:13:47.725Z,22.79
2022-09-04T23:13:49.987Z,22.89
2022-09-04T23:15:54.353Z,22.66
2022-09-04T23:20:00.659Z,22.61
2022-09-04T23:26:33.435Z,22.54
2022-09-04T23:26:58.314Z,22.54
2022-09-04T23:27:29.416Z,22.53
2022-09-04T23:29:59.380Z,22.50
2022-09-04T23:32:26.370Z,22.48
2022-09-04T23:34:57.740Z,22.48
2022-09-04T23:37:39.774Z,22.49
2022-09-04T23:40:12.227Z,22.47
2022-09-04T23:42:51.062Z,22.44
2022-09-04T23:45:36.745Z,22.37
2022-09-04T23:48:15.208Z,22.33
2022-09-04T23:50:45.191Z,22.29
2022-09-04T23:53:20.380Z,22.25
2022-09-04T23:55:56.164Z,22.21
2022-09-04T23:58:51.572Z,22.14
